Time;durP1;ratioP1;P1;durP2;ratioP2;P2;SDS_P1;SDS_P2;PMS_P1;PMS_P2;Temp;Humidity;BMP_temperature;BMP_pressure;BME280_temperature;BME280_humidity;BME280_pressure;Samples;Min_cycle;Max_cycle;Signal;HPM_P1;HPM_P2
2024/01/09 00:00:06;;;;;;;5.43;1.97;;;-4.50;99.90;;;;;;5032972;28;20447;-60
2024/01/09 00:02:31;;;;;;;7.37;2.00;;;-4.40;99.90;;;;;;5032989;28;20044;-59
2024/01/09 00:04:57;;;;;;;4.43;1.77;;;-4.50;99.90;;;;;;5033291;28;20523;-60
2024/01/09 00:07:23;;;;;;;5.87;1.73;;;-4.50;99.90;;;;;;5033369;28;20036;-60
2024/01/09 00:09:48;;;;;;;5.10;1.70;;;-4.60;99.90;;;;;;5014758;28;20148;-60
2024/01/09 00:12:14;;;;;;;5.47;1.70;;;-4.60;99.90;;;;;;5032832;28;20056;-60
2024/01/09 00:14:39;;;;;;;5.30;2.00;;;-4.60;99.90;;;;;;5032751;28;20025;-60
2024/01/09 00:17:05;;;;;;;6.90;1.90;;;-4.60;99.90;;;;;;5032338;28;20406;-59
2024/01/09 00:19:30;;;;;;;6.90;1.83;;;-4.60;99.90;;;;;;5032026;28;20030;-60
2024/01/09 00:21:56;;;;;;;7.23;2.07;;;-4.70;99.90;;;;;;5032538;28;20029;-59
2024/01/09 00:24:22;;;;;;;3.67;1.67;;;-4.70;99.90;;;;;;5032934;28;20486;-60
2024/01/09 00:26:47;;;;;;;5.57;1.50;;;-4.70;99.90;;;;;;5032780;28;20025;-59
2024/01/09 00:29:13;;;;;;;9.63;2.40;;;-4.60;99.90;;;;;;5032156;28;20037;-57
2024/01/09 00:31:38;;;;;;;4.80;1.87;;;-4.70;99.90;;;;;;5014611;28;20033;-57
2024/01/09 00:34:04;;;;;;;4.93;1.40;;;-4.70;99.90;;;;;;5032378;28;20048;-56
2024/01/09 00:36:30;;;;;;;3.23;1.37;;;-4.70;99.90;;;;;;5032347;28;20092;-57
2024/01/09 00:38:55;;;;;;;3.33;1.40;;;-4.70;99.90;;;;;;5031883;28;20041;-59
2024/01/09 00:41:21;;;;;;;3.73;1.47;;;-4.80;99.90;;;;;;5032483;28;20025;-55
2024/01/09 00:43:47;;;;;;;3.50;1.43;;;-4.80;99.90;;;;;;5032185;28;20037;-56
2024/01/09 00:46:12;;;;;;;7.00;1.97;;;-4.80;99.90;;;;;;5032605;28;20025;-57
2024/01/09 00:48:38;;;;;;;13.83;2.33;;;-4.90;99.90;;;;;;5032479;28;20032;-59
2024/01/09 00:51:04;;;;;;;4.83;1.73;;;-4.90;99.90;;;;;;5032723;28;20033;-59
2024/01/09 00:53:29;;;;;;;4.93;1.27;;;-4.80;99.90;;;;;;5032433;28;20398;-60
2024/01/09 00:55:56;;;;;;;2.97;1.47;;;-4.80;99.90;;;;;;5032088;28;20428;-60
2024/01/09 00:58:22;;;;;;;7.13;1.57;;;-4.70;99.90;;;;;;5032120;28;20398;-57
2024/01/09 01:00:47;;;;;;;3.03;1.50;;;-4.80;99.90;;;;;;5031917;28;20436;-60
2024/01/09 01:03:13;;;;;;;7.07;1.57;;;-4.80;99.90;;;;;;5032152;28;20497;-60
2024/01/09 01:05:38;;;;;;;4.23;1.77;;;-4.80;99.90;;;;;;5032262;28;20026;-60
2024/01/09 01:08:05;;;;;;;7.43;2.17;;;-4.90;99.90;;;;;;5032004;28;20029;-60
2024/01/09 01:10:30;;;;;;;3.83;1.53;;;-4.80;99.90;;;;;;5014136;28;20120;-60
2024/01/09 01:12:56;;;;;;;5.03;1.97;;;-4.80;99.90;;;;;;5032246;28;20467;-60
2024/01/09 01:15:23;;;;;;;4.80;1.50;;;-4.90;99.90;;;;;;5031969;28;20037;-59
2024/01/09 01:17:48;;;;;;;4.50;1.87;;;-4.90;99.90;;;;;;5031831;28;20041;-58
2024/01/09 01:20:15;;;;;;;6.23;1.87;;;-4.90;99.90;;;;;;5031800;28;20516;-63
2024/01/09 01:22:41;;;;;;;3.70;1.13;;;-4.80;99.90;;;;;;5031854;28;20444;-60
2024/01/09 01:25:08;;;;;;;6.90;2.30;;;-4.90;99.90;;;;;;5032236;28;20448;-59
2024/01/09 01:27:33;;;;;;;5.37;2.30;;;-4.90;99.90;;;;;;5032075;28;20994;-60
2024/01/09 01:29:59;;;;;;;3.77;1.23;;;-5.00;99.90;;;;;;5034431;28;20436;-60
2024/01/09 01:32:24;;;;;;;8.97;1.87;;;-4.90;99.90;;;;;;5036042;28;20033;-59
2024/01/09 01:34:50;;;;;;;6.40;2.23;;;-5.00;99.90;;;;;;5035936;28;20124;-60
2024/01/09 01:37:15;;;;;;;7.97;1.90;;;-5.00;99.90;;;;;;5035994;28;20033;-60
2024/01/09 01:39:41;;;;;;;3.53;1.33;;;-4.90;99.90;;;;;;5035463;28;20474;-59
2024/01/09 01:42:07;;;;;;;4.27;1.03;;;-4.90;99.90;;;;;;5035485;28;20064;-56
2024/01/09 01:44:32;;;;;;;5.23;1.90;;;-4.90;99.90;;;;;;5035618;28;20486;-59
2024/01/09 01:46:58;;;;;;;3.30;1.27;;;-4.80;99.90;;;;;;5035985;28;20474;-59
2024/01/09 01:49:25;;;;;;;5.80;1.40;;;-4.90;99.90;;;;;;5017719;28;20061;-60
2024/01/09 01:51:51;;;;;;;3.53;1.40;;;-5.00;99.90;;;;;;5035412;28;20033;-60
2024/01/09 01:54:19;;;;;;;1.97;1.10;;;-5.00;99.90;;;;;;5035566;28;20420;-61
2024/01/09 01:56:46;;;;;;;7.13;2.03;;;-5.00;99.90;;;;;;5035365;28;20424;-61
2024/01/09 01:59:16;;;;;;;2.43;1.23;;;-5.10;99.90;;;;;;5035057;28;20555;-58
2024/01/09 02:01:44;;;;;;;5.00;1.40;;;-5.00;99.90;;;;;;5035123;28;20933;-59
2024/01/09 02:04:11;;;;;;;3.13;1.80;;;-5.00;99.90;;;;;;5035262;28;20523;-61
2024/01/09 02:06:38;;;;;;;5.40;1.70;;;-5.00;99.90;;;;;;5035207;28;20428;-60
2024/01/09 02:09:04;;;;;;;6.13;1.73;;;-5.10;99.90;;;;;;5034824;28;20471;-59
2024/01/09 02:11:30;;;;;;;5.07;1.50;;;-5.00;99.90;;;;;;5034994;28;20519;-61
2024/01/09 02:13:55;;;;;;;4.33;1.57;;;-5.10;99.90;;;;;;5035101;28;20468;-60
2024/01/09 02:16:21;;;;;;;4.93;1.63;;;-5.10;99.90;;;;;;5035021;28;20112;-61
2024/01/09 02:18:46;;;;;;;5.13;1.60;;;-5.00;99.90;;;;;;5034820;28;20067;-60
2024/01/09 02:21:12;;;;;;;1.77;0.90;;;-5.00;99.90;;;;;;5034838;28;20025;-60
2024/01/09 02:23:38;;;;;;;3.77;1.53;;;-5.10;99.90;;;;;;5034783;28;20542;-61
2024/01/09 02:26:05;;;;;;;8.60;1.87;;;-5.10;99.90;;;;;;5034727;28;20112;-60
2024/01/09 02:28:35;;;;;;;4.83;1.97;;;-5.20;99.90;;;;;;5035068;28;20437;-59
2024/01/09 02:31:01;;;;;;;3.83;1.30;;;-5.20;99.90;;;;;;5034690;28;20884;-60
2024/01/09 02:33:28;;;;;;;3.93;1.60;;;-5.20;99.90;;;;;;5034471;28;20476;-60
2024/01/09 02:35:54;;;;;;;6.00;1.93;;;-5.20;99.90;;;;;;5034757;28;20112;-60
2024/01/09 02:38:21;;;;;;;5.23;1.43;;;-5.20;99.90;;;;;;5034447;28;20898;-60
2024/01/09 02:40:47;;;;;;;4.87;2.00;;;-5.30;99.90;;;;;;5033528;28;20075;-60
2024/01/09 02:43:12;;;;;;;3.17;1.50;;;-5.30;99.90;;;;;;5034507;28;20515;-60
2024/01/09 02:45:38;;;;;;;4.67;1.90;;;-5.30;99.90;;;;;;5034670;28;20669;-60
2024/01/09 02:48:04;;;;;;;3.83;1.33;;;-5.30;99.90;;;;;;5034574;28;20029;-60
2024/01/09 02:50:29;;;;;;;4.23;1.80;;;-5.40;99.90;;;;;;5034225;28;20391;-60
2024/01/09 02:52:56;;;;;;;3.23;1.17;;;-5.30;99.90;;;;;;5034252;28;20216;-60
2024/01/09 02:55:22;;;;;;;1.73;0.97;;;-5.30;99.90;;;;;;5034505;28;20976;-60
2024/01/09 02:57:47;;;;;;;6.97;1.77;;;-5.40;99.90;;;;;;5034191;28;20037;-60
2024/01/09 03:00:13;;;;;;;3.13;1.17;;;-5.30;99.90;;;;;;5034192;28;20022;-60
2024/01/09 03:02:39;;;;;;;3.60;1.40;;;-5.30;99.90;;;;;;5034326;28;20405;-58
2024/01/09 03:05:07;;;;;;;4.60;1.67;;;-5.30;99.90;;;;;;5034377;28;20029;-60
2024/01/09 03:07:33;;;;;;;2.80;1.23;;;-5.30;99.90;;;;;;5034281;28;20037;-60
2024/01/09 03:09:59;;;;;;;6.27;1.83;;;-5.30;99.90;;;;;;5033834;28;20076;-60
2024/01/09 03:12:25;;;;;;;3.53;1.40;;;-5.20;99.90;;;;;;5033962;28;20394;-59
2024/01/09 03:14:50;;;;;;;2.93;1.57;;;-5.30;99.90;;;;;;5034022;28;20387;-60
2024/01/09 03:17:16;;;;;;;5.13;1.60;;;-5.40;99.90;;;;;;5034036;28;20528;-59
2024/01/09 03:19:43;;;;;;;1.57;1.07;;;-5.30;99.90;;;;;;5033661;28;20440;-60
2024/01/09 03:22:08;;;;;;;3.83;1.67;;;-5.30;99.90;;;;;;5033901;28;20397;-60
2024/01/09 03:24:34;;;;;;;3.27;1.20;;;-5.30;99.90;;;;;;5033783;28;20439;-60
2024/01/09 03:27:00;;;;;;;3.40;1.67;;;-5.40;99.90;;;;;;5033862;28;20018;-60
2024/01/09 03:29:25;;;;;;;3.27;1.40;;;-5.40;99.90;;;;;;5033416;28;20597;-60
2024/01/09 03:31:51;;;;;;;3.27;1.53;;;-5.40;99.90;;;;;;5015883;28;20037;-60
2024/01/09 03:34:17;;;;;;;4.37;1.90;;;-5.40;99.90;;;;;;5015945;28;20033;-60
2024/01/09 03:36:46;;;;;;;3.63;1.50;;;-5.40;99.90;;;;;;5033519;28;20052;-59
2024/01/09 03:39:14;;;;;;;3.55;1.50;;;-5.40;99.90;;;;;;5033292;28;20120;-60
2024/01/09 03:41:44;;;;;;;4.93;1.70;;;-5.40;99.90;;;;;;5033540;28;20057;-60
2024/01/09 03:44:12;;;;;;;3.60;1.40;;;-5.50;99.90;;;;;;5033549;28;20521;-60
2024/01/09 03:46:38;;;;;;;5.77;1.67;;;-5.50;99.90;;;;;;5033301;28;20531;-60
2024/01/09 03:49:04;;;;;;;5.03;1.50;;;-5.50;99.90;;;;;;5033021;28;20479;-59
2024/01/09 03:51:30;;;;;;;3.50;1.07;;;-5.60;99.90;;;;;;5033174;28;20057;-60
2024/01/09 03:53:55;;;;;;;4.07;1.70;;;-5.50;99.90;;;;;;5032240;28;20825;-60
2024/01/09 03:56:22;;;;;;;5.27;1.70;;;-5.60;99.90;;;;;;5033185;28;20065;-60
2024/01/09 03:58:48;;;;;;;3.80;1.50;;;-5.60;99.90;;;;;;5032984;28;20037;-60
2024/01/09 04:01:13;;;;;;;4.93;1.83;;;-5.60;99.90;;;;;;5032993;28;20443;-60
2024/01/09 04:03:40;;;;;;;4.27;1.50;;;-5.50;99.90;;;;;;5015348;28;20109;-60
2024/01/09 04:06:06;;;;;;;4.00;1.47;;;-5.50;99.90;;;;;;5033045;28;20075;-60
2024/01/09 04:08:31;;;;;;;3.63;1.60;;;-5.50;99.90;;;;;;5032906;28;20463;-60
2024/01/09 04:10:57;;;;;;;4.87;1.57;;;-5.60;99.90;;;;;;5032877;28;20032;-59
2024/01/09 04:13:29;;;;;;;5.63;1.90;;;-5.60;99.90;;;;;;5069438;28;21265;-65
2024/01/09 04:15:55;;;;;;;0.27;0.27;;;-5.50;99.90;;;;;;5069347;28;20411;-60
2024/01/09 04:18:21;;;;;;;3.90;1.37;;;-5.50;99.90;;;;;;5069359;28;20020;-60
2024/01/09 04:20:46;;;;;;;4.47;1.70;;;-5.50;99.90;;;;;;5069066;28;20067;-60
2024/01/09 04:23:12;;;;;;;4.67;1.43;;;-5.50;99.90;;;;;;5067824;28;20043;-60
2024/01/09 04:25:37;;;;;;;4.87;1.57;;;-5.60;99.90;;;;;;5069290;28;20037;-60
2024/01/09 04:28:03;;;;;;;5.23;1.87;;;-5.60;99.90;;;;;;5069060;28;20036;-60
2024/01/09 04:30:29;;;;;;;4.47;1.93;;;-5.60;99.90;;;;;;5069017;28;20029;-60
2024/01/09 04:32:54;;;;;;;3.90;1.30;;;-5.70;99.90;;;;;;5069343;28;20036;-60
2024/01/09 04:35:20;;;;;;;2.37;1.27;;;-5.70;99.90;;;;;;5069184;28;20055;-60
2024/01/09 04:37:46;;;;;;;4.03;1.57;;;-5.60;99.90;;;;;;5068898;28;20021;-60
2024/01/09 04:40:11;;;;;;;5.37;1.77;;;-5.50;99.90;;;;;;5069089;28;20033;-60
2024/01/09 04:42:37;;;;;;;3.63;1.70;;;-5.60;99.90;;;;;;5069030;28;20037;-60
2024/01/09 04:45:03;;;;;;;4.17;1.73;;;-5.60;99.90;;;;;;5068999;28;20389;-60
2024/01/09 04:47:29;;;;;;;3.60;1.63;;;-5.70;99.90;;;;;;5068845;28;20393;-60
2024/01/09 04:49:55;;;;;;;4.50;1.40;;;-5.70;99.90;;;;;;5068664;28;20033;-59
2024/01/09 04:52:20;;;;;;;4.30;1.80;;;-5.80;99.90;;;;;;5068456;28;20979;-60
2024/01/09 04:54:46;;;;;;;5.80;1.73;;;-5.80;99.90;;;;;;5068726;28;20379;-59
2024/01/09 04:57:12;;;;;;;4.80;1.50;;;-5.80;99.90;;;;;;5068621;28;20040;-60
2024/01/09 04:59:39;;;;;;;4.80;1.50;;;-5.80;99.90;;;;;;5068258;28;20020;-59
2024/01/09 05:02:05;;;;;;;6.10;1.53;;;-5.70;99.90;;;;;;5068339;28;20039;-60
2024/01/09 05:04:30;;;;;;;6.47;2.03;;;-5.70;99.90;;;;;;5068443;28;20951;-60
2024/01/09 05:06:56;;;;;;;4.53;1.50;;;-5.70;99.90;;;;;;5068299;28;20040;-59
2024/01/09 05:09:22;;;;;;;7.50;2.60;;;-5.70;99.90;;;;;;5066926;28;20040;-59
2024/01/09 05:11:47;;;;;;;7.80;2.63;;;-5.70;99.90;;;;;;5068075;28;20036;-59
2024/01/09 05:14:13;;;;;;;4.73;1.43;;;-5.80;99.90;;;;;;5068156;28;20112;-60
2024/01/09 05:16:38;;;;;;;5.10;1.57;;;-5.80;99.90;;;;;;5066983;28;20458;-59
2024/01/09 05:19:04;;;;;;;6.57;2.17;;;-5.70;99.90;;;;;;5067915;28;20029;-56
2024/01/09 05:21:32;;;;;;;3.67;1.30;;;-5.70;99.90;;;;;;5067984;28;20362;-59
2024/01/09 05:23:58;;;;;;;5.40;2.00;;;-5.60;99.90;;;;;;5059566;28;20032;-59
2024/01/09 05:26:23;;;;;;;2.63;1.47;;;-5.60;99.90;;;;;;5054923;28;20435;-58
2024/01/09 05:28:49;;;;;;;3.93;2.00;;;-5.70;99.90;;;;;;5054664;28;20025;-60
2024/01/09 05:31:15;;;;;;;5.83;2.33;;;-5.70;99.90;;;;;;5054432;28;20045;-58
2024/01/09 05:33:40;;;;;;;3.77;1.80;;;-5.70;99.90;;;;;;5054632;28;20118;-59
2024/01/09 05:36:07;;;;;;;3.70;1.50;;;-5.70;99.90;;;;;;5054670;28;20477;-59
2024/01/09 05:38:33;;;;;;;5.97;2.10;;;-5.70;99.90;;;;;;5054389;28;20037;-58
2024/01/09 05:40:58;;;;;;;4.33;1.80;;;-5.80;99.90;;;;;;5054355;28;20435;-59
2024/01/09 05:43:24;;;;;;;3.50;1.63;;;-5.80;99.90;;;;;;5054288;28;20863;-59
2024/01/09 05:45:50;;;;;;;4.63;1.70;;;-5.80;99.90;;;;;;5054330;28;20033;-59
2024/01/09 05:48:15;;;;;;;7.50;2.13;;;-5.90;99.90;;;;;;5054330;28;20032;-60
2024/01/09 05:50:41;;;;;;;4.93;1.47;;;-5.90;99.90;;;;;;5053991;28;20445;-60
2024/01/09 05:53:08;;;;;;;4.13;1.60;;;-5.90;99.90;;;;;;5054005;28;20486;-60
2024/01/09 05:55:33;;;;;;;3.10;1.20;;;-6.00;99.90;;;;;;5054325;28;20116;-58
2024/01/09 05:57:59;;;;;;;3.47;2.03;;;-5.90;99.90;;;;;;5054222;28;20459;-58
2024/01/09 06:00:24;;;;;;;6.53;2.27;;;-6.00;99.90;;;;;;5053670;28;20025;-59
2024/01/09 06:02:51;;;;;;;5.83;2.43;;;-6.00;99.90;;;;;;5053866;28;20458;-59
2024/01/09 06:05:17;;;;;;;7.63;2.03;;;-6.00;99.90;;;;;;5053975;28;20083;-60
2024/01/09 06:07:42;;;;;;;5.17;2.10;;;-6.00;99.90;;;;;;5053759;28;20424;-60
2024/01/09 06:10:08;;;;;;;3.63;1.77;;;-6.00;99.90;;;;;;5053702;28;20090;-58
2024/01/09 06:12:34;;;;;;;4.67;2.00;;;-6.10;99.90;;;;;;5053649;28;20435;-59
2024/01/09 06:15:00;;;;;;;5.40;2.23;;;-6.10;99.90;;;;;;5053804;28;20427;-59
2024/01/09 06:17:25;;;;;;;2.90;1.70;;;-6.10;99.90;;;;;;5052521;28;20167;-60
2024/01/09 06:19:51;;;;;;;5.43;2.27;;;-6.10;99.90;;;;;;5053636;28;20131;-60
2024/01/09 06:22:17;;;;;;;6.03;2.27;;;-6.10;99.90;;;;;;5053490;28;20488;-60
2024/01/09 06:24:42;;;;;;;6.47;2.17;;;-6.10;99.90;;;;;;5053721;28;20447;-60
2024/01/09 06:27:08;;;;;;;3.27;1.80;;;-6.10;99.90;;;;;;5053759;28;20033;-58
2024/01/09 06:29:34;;;;;;;6.40;1.60;;;-6.10;99.90;;;;;;5053303;28;20425;-60
2024/01/09 06:31:59;;;;;;;6.10;1.93;;;-6.10;99.90;;;;;;5053315;28;20037;-59
2024/01/09 06:34:25;;;;;;;7.73;2.80;;;-6.10;99.90;;;;;;5053195;28;20040;-60
2024/01/09 06:36:50;;;;;;;6.07;2.00;;;-6.10;99.90;;;;;;5052659;28;20075;-60
2024/01/09 06:39:16;;;;;;;9.10;3.03;;;-6.10;99.90;;;;;;5052039;28;20120;-60
2024/01/09 06:41:43;;;;;;;4.63;2.20;;;-6.10;99.90;;;;;;5053208;28;20037;-60
2024/01/09 06:44:09;;;;;;;4.63;2.27;;;-6.10;99.90;;;;;;5052148;28;20036;-60
2024/01/09 06:46:35;;;;;;;4.23;2.10;;;-6.10;99.90;;;;;;5053498;28;20792;-60
2024/01/09 06:49:01;;;;;;;6.43;2.20;;;-6.10;99.90;;;;;;5052929;28;20435;-60
2024/01/09 06:51:26;;;;;;;4.73;2.07;;;-6.10;99.90;;;;;;5053158;28;20059;-60
2024/01/09 06:53:52;;;;;;;7.00;2.17;;;-6.10;99.90;;;;;;5052973;28;20063;-60
2024/01/09 06:56:17;;;;;;;6.20;2.30;;;-6.00;99.90;;;;;;5052921;28;20029;-60
2024/01/09 06:58:45;;;;;;;6.10;2.10;;;-6.00;99.90;;;;;;5051520;28;20382;-59
2024/01/09 07:01:11;;;;;;;5.27;2.43;;;-6.00;99.90;;;;;;5052832;28;20033;-59
2024/01/09 07:03:37;;;;;;;4.93;2.00;;;-6.10;99.90;;;;;;5053043;28;20781;-58
2024/01/09 07:06:03;;;;;;;5.90;1.83;;;-6.10;99.90;;;;;;5052757;28;20432;-60
2024/01/09 07:08:28;;;;;;;4.47;1.90;;;-6.10;99.90;;;;;;5052816;28;20036;-60
2024/01/09 07:10:54;;;;;;;3.93;1.77;;;-6.10;99.90;;;;;;5053166;28;20431;-60
2024/01/09 07:13:21;;;;;;;3.83;1.60;;;-6.10;99.90;;;;;;5052327;28;20044;-60
2024/01/09 07:15:46;;;;;;;8.87;2.50;;;-6.10;99.90;;;;;;5052685;28;20932;-60
2024/01/09 07:18:12;;;;;;;6.50;2.30;;;-6.10;99.90;;;;;;5051191;28;20466;-59
2024/01/09 07:20:38;;;;;;;7.67;2.40;;;-6.10;99.90;;;;;;5052419;28;20029;-60
2024/01/09 07:23:03;;;;;;;7.17;2.00;;;-6.00;99.90;;;;;;5052728;28;20033;-60
2024/01/09 07:25:29;;;;;;;5.93;2.13;;;-6.00;99.90;;;;;;5052361;28;20108;-59
2024/01/09 07:27:54;;;;;;;7.97;2.03;;;-6.00;99.90;;;;;;5052315;28;20029;-60
2024/01/09 07:30:20;;;;;;;6.03;2.30;;;-6.10;99.90;;;;;;5052172;28;20449;-60
2024/01/09 07:32:46;;;;;;;7.13;1.80;;;-6.00;99.90;;;;;;5052120;28;20025;-60
2024/01/09 07:35:11;;;;;;;7.10;2.30;;;-6.10;99.90;;;;;;5052264;28;20455;-60
2024/01/09 07:37:37;;;;;;;6.37;2.33;;;-6.10;99.90;;;;;;5052346;28;20021;-58
2024/01/09 07:40:04;;;;;;;4.13;2.27;;;-6.10;99.90;;;;;;5052156;28;20025;-58
2024/01/09 07:42:30;;;;;;;6.80;2.70;;;-6.10;99.90;;;;;;5052028;28;20028;-59
2024/01/09 07:44:56;;;;;;;7.83;2.70;;;-6.10;99.90;;;;;;5052236;28;20431;-59
2024/01/09 07:47:21;;;;;;;9.07;2.33;;;-6.10;99.90;;;;;;5051805;28;20450;-58
2024/01/09 07:49:47;;;;;;;9.77;2.80;;;-6.10;99.90;;;;;;5051851;28;20029;-60
2024/01/09 07:52:13;;;;;;;7.17;2.93;;;-6.10;99.90;;;;;;5051865;28;20029;-60
2024/01/09 07:54:40;;;;;;;5.57;2.07;;;-6.10;99.90;;;;;;5052236;28;20030;-60
2024/01/09 07:57:07;;;;;;;8.67;2.40;;;-6.10;99.90;;;;;;5052185;28;20524;-59
2024/01/09 07:59:32;;;;;;;4.57;2.17;;;-6.10;99.90;;;;;;5051804;28;20445;-60
2024/01/09 08:02:00;;;;;;;7.37;2.00;;;-6.10;99.90;;;;;;5051781;28;20435;-59
2024/01/09 08:04:25;;;;;;;5.30;1.97;;;-5.90;99.90;;;;;;5051573;28;20065;-57
2024/01/09 08:06:51;;;;;;;7.60;2.40;;;-5.80;99.90;;;;;;5052485;28;20501;-56
2024/01/09 08:09:20;;;;;;;4.67;2.00;;;-5.80;99.90;;;;;;5051016;28;20024;-55
2024/01/09 08:11:46;;;;;;;7.55;2.47;;;-5.80;99.90;;;;;;5033769;28;20083;-53
2024/01/09 08:14:13;;;;;;;5.03;2.03;;;-5.80;99.90;;;;;;5052357;28;20025;-59
2024/01/09 08:16:42;;;;;;;5.63;2.60;;;-5.80;99.90;;;;;;5052012;28;20510;-59
2024/01/09 08:19:09;;;;;;;4.95;1.50;;;-5.60;99.90;;;;;;5051713;28;20816;-59
2024/01/09 08:21:35;;;;;;;9.23;2.53;;;-5.70;99.90;;;;;;5049889;28;20033;-59
2024/01/09 08:24:01;;;;;;;5.90;1.80;;;-5.70;99.90;;;;;;5051483;28;20433;-59
2024/01/09 08:26:27;;;;;;;8.70;2.40;;;-5.70;99.90;;;;;;5051728;28;20542;-59
2024/01/09 08:28:53;;;;;;;7.53;2.93;;;-5.70;99.90;;;;;;5051717;28;20451;-59
2024/01/09 08:31:18;;;;;;;9.50;3.27;;;-5.70;99.90;;;;;;5040606;28;20098;-57
2024/01/09 08:33:44;;;;;;;6.83;2.67;;;-5.70;99.90;;;;;;5031675;28;20037;-51
2024/01/09 08:36:11;;;;;;;8.47;2.57;;;-5.70;99.90;;;;;;5031581;28;20573;-58
2024/01/09 08:38:37;;;;;;;11.17;3.50;;;-5.60;99.90;;;;;;5046226;28;20033;-55
2024/01/09 08:41:04;;;;;;;7.83;2.97;;;-5.60;99.90;;;;;;5050228;28;20431;-53
2024/01/09 08:43:30;;;;;;;8.70;2.77;;;-5.60;99.90;;;;;;5051532;28;20436;-58
2024/01/09 08:45:55;;;;;;;10.23;3.03;;;-5.60;99.90;;;;;;5051458;28;20485;-56
2024/01/09 08:48:21;;;;;;;5.93;2.57;;;-5.40;99.90;;;;;;5051064;28;20029;-58
2024/01/09 08:50:48;;;;;;;9.83;3.07;;;-5.50;99.90;;;;;;5051242;28;20079;-57
2024/01/09 08:53:14;;;;;;;6.13;2.87;;;-5.40;99.90;;;;;;5051171;28;20102;-56
2024/01/09 08:55:39;;;;;;;14.50;3.23;;;-5.40;99.90;;;;;;5051327;28;20931;-57
2024/01/09 08:58:05;;;;;;;7.33;2.80;;;-5.30;99.90;;;;;;5051594;28;20024;-56
2024/01/09 09:00:31;;;;;;;7.23;2.90;;;-5.20;99.90;;;;;;5054928;28;20564;-56
2024/01/09 09:02:56;;;;;;;5.37;2.27;;;-5.20;99.90;;;;;;5055139;28;20033;-57
2024/01/09 09:05:22;;;;;;;7.13;2.60;;;-5.20;99.90;;;;;;5055198;28;20033;-58
2024/01/09 09:07:47;;;;;;;6.40;2.90;;;-5.20;99.90;;;;;;5055014;28;20482;-58
2024/01/09 09:10:13;;;;;;;4.73;2.37;;;-5.20;99.90;;;;;;5054782;28;20108;-58
2024/01/09 09:12:39;;;;;;;8.97;3.03;;;-5.10;99.90;;;;;;5053368;28;20075;-57
2024/01/09 09:15:04;;;;;;;8.90;2.70;;;-5.00;99.90;;;;;;5055083;28;20393;-58
2024/01/09 09:17:33;;;;;;;5.80;2.67;;;-5.00;99.90;;;;;;5054815;28;20025;-58
2024/01/09 09:19:59;;;;;;;5.60;1.93;;;-5.00;99.90;;;;;;5053274;28;20029;-58
2024/01/09 09:22:25;;;;;;;6.63;2.40;;;-4.90;99.90;;;;;;5054649;28;20966;-58
2024/01/09 09:24:54;;;;;;;6.30;2.53;;;-4.90;99.90;;;;;;5054738;28;20044;-58
2024/01/09 09:27:19;;;;;;;6.63;2.10;;;-4.90;99.90;;;;;;5054592;28;20800;-58
2024/01/09 09:29:45;;;;;;;7.67;2.60;;;-4.80;99.90;;;;;;5054395;28;20495;-58
2024/01/09 09:32:11;;;;;;;7.00;2.67;;;-4.60;99.90;;;;;;5054496;28;20033;-58
2024/01/09 09:34:40;;;;;;;9.70;2.60;;;-4.50;99.90;;;;;;5054386;28;20118;-58
2024/01/09 09:37:07;;;;;;;7.30;2.70;;;-4.50;99.90;;;;;;5054386;28;20032;-57
2024/01/09 09:39:33;;;;;;;6.33;2.30;;;-4.50;99.90;;;;;;5054264;28;20440;-56
2024/01/09 09:41:59;;;;;;;9.93;2.77;;;-4.40;99.90;;;;;;5054440;28;20442;-59
2024/01/09 09:44:25;;;;;;;8.80;2.60;;;-4.30;99.90;;;;;;5053701;28;20530;-59
2024/01/09 09:46:51;;;;;;;5.80;2.50;;;-4.20;99.90;;;;;;5054311;28;20158;-59
2024/01/09 09:49:23;;;;;;;8.33;3.13;;;-4.10;99.90;;;;;;5054062;28;20485;-59
2024/01/09 09:51:50;;;;;;;7.60;2.40;;;-4.10;99.90;;;;;;5054123;28;20098;-59
2024/01/09 09:54:17;;;;;;;7.57;2.53;;;-4.00;99.90;;;;;;5054208;28;20432;-58
2024/01/09 09:56:44;;;;;;;6.77;2.57;;;-3.80;99.90;;;;;;5054210;28;20474;-58
2024/01/09 09:59:11;;;;;;;8.77;2.83;;;-3.60;99.90;;;;;;5054147;28;20535;-59
2024/01/09 10:01:37;;;;;;;8.77;2.53;;;-3.60;99.90;;;;;;5054260;28;20525;-58
2024/01/09 10:04:18;;;;;;;4.67;2.00;;;-3.30;99.90;;;;;;5054340;28;20439;-59
2024/01/09 10:06:46;;;;;;;6.47;2.37;;;-2.60;99.90;;;;;;5054452;28;20795;-59
2024/01/09 10:09:14;;;;;;;7.80;2.97;;;-0.90;99.90;;;;;;5052450;28;20033;-59
2024/01/09 10:11:40;;;;;;;6.87;2.30;;;0.60;97.70;;;;;;5053559;28;20064;-57
2024/01/09 10:14:08;;;;;;;5.73;2.40;;;2.20;94.30;;;;;;5054172;28;20060;-58
2024/01/09 10:16:50;;;;;;;6.60;2.75;;;4.00;91.00;;;;;;5053974;28;20025;-57
2024/01/09 10:19:16;;;;;;;8.13;3.23;;;4.90;88.10;;;;;;5053482;28;20033;-57
2024/01/09 10:21:42;;;;;;;7.93;3.20;;;5.70;85.20;;;;;;5053776;28;20478;-55
2024/01/09 10:24:08;;;;;;;9.13;2.77;;;6.20;79.80;;;;;;5053698;28;20078;-58
2024/01/09 10:26:34;;;;;;;9.33;3.23;;;7.00;76.10;;;;;;5054054;28;20055;-60
2024/01/09 10:29:00;;;;;;;7.43;3.63;;;6.90;72.90;;;;;;5053332;28;20039;-58
2024/01/09 10:31:25;;;;;;;8.43;3.40;;;7.30;71.40;;;;;;5053572;28;20063;-58
2024/01/09 10:33:51;;;;;;;6.97;3.15;;;8.00;69.60;;;;;;5053391;28;20025;-58
2024/01/09 10:36:17;;;;;;;7.13;3.35;;;8.00;67.30;;;;;;5053531;28;20061;-58
2024/01/09 10:38:44;;;;;;;7.30;3.40;;;8.60;66.20;;;;;;5052002;28;20166;-58
2024/01/09 10:41:17;;;;;;;6.05;3.30;;;9.10;64.20;;;;;;5053298;28;20025;-59
2024/01/09 10:43:44;;;;;;;7.82;3.38;;;9.60;61.80;;;;;;5052940;28;20175;-58
2024/01/09 10:46:10;;;;;;;7.22;3.70;;;9.60;60.00;;;;;;5053254;28;20021;-58
2024/01/09 10:48:36;;;;;;;6.38;3.15;;;9.10;58.50;;;;;;5053250;28;20044;-58
2024/01/09 10:51:03;;;;;;;5.20;2.78;;;9.40;59.90;;;;;;5052913;28;20029;-59
2024/01/09 10:53:31;;;;;;;7.25;3.35;;;9.20;59.00;;;;;;5052931;28;20039;-58
2024/01/09 10:55:59;;;;;;;7.63;3.28;;;9.40;58.30;;;;;;5053065;28;20025;-59
2024/01/09 10:58:24;;;;;;;7.57;3.63;;;9.10;57.90;;;;;;5052972;28;20096;-59
2024/01/09 11:00:50;;;;;;;7.88;3.60;;;8.60;59.00;;;;;;5052682;28;20527;-59
2024/01/09 11:03:16;;;;;;;6.53;3.38;;;8.60;59.50;;;;;;5052775;28;20033;-58
2024/01/09 11:05:41;;;;;;;8.68;3.20;;;9.20;58.40;;;;;;5052859;28;20482;-59
2024/01/09 11:08:12;;;;;;;7.15;3.35;;;9.20;57.70;;;;;;5052887;28;20043;-56
2024/01/09 11:10:39;;;;;;;6.50;3.22;;;8.90;57.90;;;;;;5052542;28;20032;-58
2024/01/09 11:13:06;;;;;;;6.85;3.10;;;8.30;59.00;;;;;;5051310;28;20379;-58
2024/01/09 11:15:38;;;;;;;7.63;3.45;;;8.00;58.80;;;;;;5052572;28;20041;-58
2024/01/09 11:18:06;;;;;;;6.53;3.10;;;8.20;58.70;;;;;;5052663;28;20029;-58
2024/01/09 11:20:32;;;;;;;8.68;3.75;;;7.80;58.30;;;;;;5052651;28;20428;-57
2024/01/09 11:22:57;;;;;;;8.65;2.97;;;7.10;59.00;;;;;;5049776;28;20067;-59
2024/01/09 11:25:24;;;;;;;7.53;3.50;;;6.60;60.00;;;;;;5052388;28;20068;-58
2024/01/09 11:27:51;;;;;;;6.82;3.35;;;6.10;61.00;;;;;;5052652;28;20037;-58
2024/01/09 11:30:27;;;;;;;6.85;3.15;;;5.60;61.90;;;;;;5052486;28;20033;-57
2024/01/09 11:32:52;;;;;;;7.88;3.20;;;5.30;62.90;;;;;;5052413;28;20091;-57
2024/01/09 11:35:20;;;;;;;6.57;2.87;;;5.60;61.30;;;;;;5052540;28;20446;-59
2024/01/09 11:37:51;;;;;;;6.85;2.95;;;5.80;61.20;;;;;;5052357;28;20029;-57
2024/01/09 11:40:21;;;;;;;7.53;3.15;;;5.80;62.00;;;;;;5052411;28;20053;-58
2024/01/09 11:42:50;;;;;;;7.68;3.45;;;6.00;61.40;;;;;;5052552;28;20029;-58
2024/01/09 11:45:23;;;;;;;7.45;3.15;;;5.80;60.50;;;;;;5052493;28;20029;-57
2024/01/09 11:47:49;;;;;;;4.90;2.60;;;5.30;61.70;;;;;;5052251;28;20067;-58
2024/01/09 11:50:16;;;;;;;5.17;2.60;;;4.30;64.20;;;;;;5052188;28;20029;-58
2024/01/09 11:52:42;;;;;;;5.60;2.70;;;3.70;66.10;;;;;;5052153;28;20055;-58
2024/01/09 11:55:09;;;;;;;6.33;2.80;;;3.50;68.00;;;;;;5052390;28;20382;-58
2024/01/09 11:57:36;;;;;;;4.63;2.40;;;3.60;66.50;;;;;;5052130;28;20539;-58
2024/01/09 12:00:04;;;;;;;5.63;2.43;;;3.50;66.30;;;;;;5052053;28;20047;-57
2024/01/09 12:02:31;;;;;;;7.53;2.80;;;4.00;66.00;;;;;;5051001;28;20029;-58
2024/01/09 12:04:57;;;;;;;6.93;2.67;;;4.80;65.10;;;;;;5052184;28;20032;-57
2024/01/09 12:07:23;;;;;;;5.60;2.43;;;5.50;62.40;;;;;;5052173;28;20060;-57
2024/01/09 12:09:50;;;;;;;5.77;2.50;;;5.60;61.60;;;;;;5051801;28;20035;-57
2024/01/09 12:12:23;;;;;;;5.07;2.60;;;5.50;61.40;;;;;;5051819;28;20092;-56
2024/01/09 12:14:57;;;;;;;7.20;2.83;;;4.70;63.90;;;;;;5052078;28;20036;-58
2024/01/09 12:17:27;;;;;;;7.03;3.20;;;4.00;65.10;;;;;;5052029;28;20029;-57
2024/01/09 12:19:54;;;;;;;6.63;2.77;;;3.50;65.30;;;;;;5051841;28;20064;-57
2024/01/09 12:22:20;;;;;;;7.90;2.80;;;3.10;66.70;;;;;;5050705;28;20115;-58
2024/01/09 12:24:49;;;;;;;6.93;2.60;;;2.70;66.90;;;;;;5051789;28;20029;-52
2024/01/09 12:27:15;;;;;;;6.07;2.30;;;2.80;67.00;;;;;;5051746;28;20071;-52
2024/01/09 12:29:42;;;;;;;5.70;2.70;;;3.50;67.20;;;;;;5050570;28;20036;-54
2024/01/09 12:32:09;;;;;;;6.03;2.40;;;4.00;64.30;;;;;;5051068;28;20052;-53
2024/01/09 12:34:35;;;;;;;7.47;2.70;;;4.10;65.30;;;;;;5053362;28;20032;-51
2024/01/09 12:37:05;;;;;;;8.57;2.87;;;4.20;64.30;;;;;;5055767;28;20037;-53
2024/01/09 12:39:31;;;;;;;6.73;2.60;;;4.30;64.80;;;;;;5054647;28;20116;-52
2024/01/09 12:42:07;;;;;;;5.87;2.83;;;4.60;63.90;;;;;;5054850;28;20124;-53